PA83 weather

Public forecast

Using degrees Fahrenheit for public forecast. Weather courtesy of forecast.io.

Closest aviation weather report (METAR) to Skyview Heliport

Closest report is Pennridge Airport, 4.5 nm (8.3 km) N. Retrieved 2020/08/09 14:15 UTC (0 seconds ago):

KCKZ 091415Z AUTO 25004KT 10SM CLR 26/22 A3016 RMK AO2

Closest aviation forecast (TAF) to Skyview Heliport

Closest forecast is Northeast Philadelphia Airport, 19.5 nm (36.0 km) SE. Retrieved 2020/08/09 12:24 UTC (2 hours ago):

TAF KPNE 091122Z 0912/1012 VRB03KT P6SM SCT035 FM091500 23005KT P6SM SCT050 FM100400 21005KT P6SM SCT100 FM100900 VRB03KT 4SM BR SCT080